createdAt,value
2019-02-25T00:00:15.666Z,-1.58
2019-02-25T00:02:42.717Z,-1.59
2019-02-25T00:05:09.783Z,-1.64
2019-02-25T00:07:36.851Z,-1.68
2019-02-25T00:10:04.744Z,-1.73
2019-02-25T00:12:31.832Z,-1.76
2019-02-25T00:14:58.880Z,-1.82
2019-02-25T00:17:25.924Z,-1.92
2019-02-25T00:19:52.984Z,-1.96
2019-02-25T00:22:20.067Z,-1.96
2019-02-25T00:24:47.132Z,-1.98
2019-02-25T00:27:14.182Z,-2.05
2019-02-25T00:29:41.224Z,-2.11
2019-02-25T00:32:08.280Z,-2.16
2019-02-25T00:34:35.328Z,-2.22
2019-02-25T00:37:02.399Z,-2.25
2019-02-25T00:39:29.455Z,-2.21
2019-02-25T00:41:56.530Z,-2.16
2019-02-25T00:44:23.576Z,-2.13
2019-02-25T00:46:50.654Z,-2.13
2019-02-25T00:49:17.716Z,-2.12
2019-02-25T00:51:44.766Z,-2.08
2019-02-25T00:54:11.856Z,-2.05
2019-02-25T00:56:38.909Z,-2.02
2019-02-25T00:59:06.010Z,-2.02
2019-02-25T01:01:33.104Z,-2.01
2019-02-25T01:04:00.157Z,-2.02
2019-02-25T01:06:27.199Z,-2.05
2019-02-25T01:08:54.360Z,-2.12
2019-02-25T01:11:21.427Z,-2.14
2019-02-25T01:13:48.502Z,-2.14
2019-02-25T01:16:15.545Z,-2.16
2019-02-25T01:18:42.607Z,-2.19
2019-02-25T01:21:09.699Z,-2.22
2019-02-25T01:23:36.749Z,-2.23
2019-02-25T01:26:03.802Z,-2.25
2019-02-25T01:28:30.856Z,-2.26
2019-02-25T01:30:57.912Z,-2.27
2019-02-25T01:33:24.972Z,-2.28
2019-02-25T01:35:52.082Z,-2.29
2019-02-25T01:38:19.135Z,-2.28
2019-02-25T01:40:46.188Z,-2.30
2019-02-25T01:43:13.240Z,-2.31
2019-02-25T01:45:40.295Z,-2.31
2019-02-25T01:48:07.343Z,-2.31
2019-02-25T01:50:34.392Z,-2.29
2019-02-25T01:53:01.436Z,-2.29
2019-02-25T01:55:28.491Z,-2.32
2019-02-25T01:57:55.528Z,-2.37
2019-02-25T02:00:22.579Z,-2.40
2019-02-25T02:02:49.622Z,-2.41
2019-02-25T02:05:16.679Z,-2.41
2019-02-25T02:07:43.758Z,-2.41
2019-02-25T02:10:11.172Z,-2.42
2019-02-25T02:12:38.217Z,-2.43
2019-02-25T02:15:07.796Z,-2.43
2019-02-25T02:17:34.850Z,-2.43
2019-02-25T02:20:01.913Z,-2.41
2019-02-25T02:22:28.984Z,-2.39
2019-02-25T02:24:56.051Z,-2.36
2019-02-25T02:27:23.087Z,-2.37
2019-02-25T02:29:50.153Z,-2.42
2019-02-25T02:32:17.218Z,-2.48
2019-02-25T02:34:44.296Z,-2.52
2019-02-25T02:37:11.350Z,-2.54
2019-02-25T02:39:38.401Z,-2.52
2019-02-25T02:42:10.667Z,-2.48
2019-02-25T02:44:37.707Z,-2.43
2019-02-25T02:47:44.322Z,-2.42
2019-02-25T02:50:14.555Z,-2.39
2019-02-25T02:52:41.608Z,-2.37
2019-02-25T02:55:08.683Z,-2.35
2019-02-25T02:57:35.763Z,-2.34
2019-02-25T03:00:03.680Z,-2.34
2019-02-25T03:02:30.744Z,-2.33
2019-02-25T03:04:57.824Z,-2.31
2019-02-25T03:07:24.866Z,-2.35
2019-02-25T03:09:51.922Z,-2.45
2019-02-25T03:12:18.987Z,-2.53
2019-02-25T03:14:46.034Z,-2.55
2019-02-25T03:17:13.068Z,-2.55
2019-02-25T03:19:40.099Z,-2.53
2019-02-25T03:22:07.169Z,-2.51
2019-02-25T03:24:34.216Z,-2.49
2019-02-25T03:27:01.278Z,-2.47
2019-02-25T03:29:28.322Z,-2.47
2019-02-25T03:31:55.346Z,-2.48
2019-02-25T03:34:22.390Z,-2.47
2019-02-25T03:36:49.447Z,-2.47
2019-02-25T03:39:16.487Z,-2.47
2019-02-25T03:41:43.541Z,-2.50
2019-02-25T03:44:10.596Z,-2.50
2019-02-25T03:46:37.640Z,-2.50
2019-02-25T03:49:04.689Z,-2.49
2019-02-25T03:51:31.741Z,-2.48
2019-02-25T03:53:58.803Z,-2.47
2019-02-25T03:56:25.851Z,-2.44
2019-02-25T03:58:52.898Z,-2.42
2019-02-25T04:01:19.954Z,-2.42
2019-02-25T04:03:46.995Z,-2.42
2019-02-25T04:06:14.067Z,-2.46
2019-02-25T04:08:41.128Z,-2.46
2019-02-25T04:11:08.217Z,-2.49
2019-02-25T04:13:35.268Z,-2.50
2019-02-25T04:16:02.314Z,-2.52
2019-02-25T04:18:29.366Z,-2.55
2019-02-25T04:20:56.434Z,-2.59
2019-02-25T04:23:23.530Z,-2.67
2019-02-25T04:25:50.590Z,-2.80
2019-02-25T04:28:17.666Z,-2.83
2019-02-25T04:30:44.740Z,-2.79
2019-02-25T04:33:11.822Z,-2.76
2019-02-25T04:35:38.876Z,-2.74
2019-02-25T04:38:05.938Z,-2.76
2019-02-25T04:40:32.987Z,-2.76
2019-02-25T04:43:00.056Z,-2.76
2019-02-25T04:45:27.137Z,-2.73
2019-02-25T04:47:54.199Z,-2.73
2019-02-25T04:50:21.275Z,-2.77
2019-02-25T04:52:48.334Z,-2.78
2019-02-25T04:55:19.980Z,-2.78
2019-02-25T04:57:47.017Z,-2.78
2019-02-25T05:00:15.285Z,-2.80
2019-02-25T05:02:42.375Z,-2.83
2019-02-25T05:05:09.454Z,-2.90
2019-02-25T05:07:36.519Z,-3.01
2019-02-25T05:10:03.992Z,-3.03
2019-02-25T05:12:31.054Z,-2.99
2019-02-25T05:14:58.094Z,-2.99
2019-02-25T05:17:25.126Z,-2.98
2019-02-25T05:19:52.180Z,-2.95
2019-02-25T05:22:19.229Z,-2.91
2019-02-25T05:24:46.299Z,-2.89
2019-02-25T05:27:13.322Z,-2.88
2019-02-25T05:29:40.376Z,-2.87
2019-02-25T05:32:07.415Z,-2.88
2019-02-25T05:34:34.454Z,-2.89
2019-02-25T05:37:01.496Z,-2.90
2019-02-25T05:39:28.524Z,-2.87
2019-02-25T05:41:55.601Z,-2.89
2019-02-25T05:44:22.636Z,-2.92
2019-02-25T05:46:49.680Z,-2.93
2019-02-25T05:49:16.720Z,-2.91
2019-02-25T05:51:43.726Z,-2.88
2019-02-25T05:54:10.809Z,-2.86
2019-02-25T05:56:37.863Z,-2.81
2019-02-25T05:59:04.924Z,-2.78
2019-02-25T06:01:31.941Z,-2.78
2019-02-25T06:03:59.047Z,-2.74
2019-02-25T06:06:26.089Z,-2.40
2019-02-25T06:08:53.160Z,-1.93
2019-02-25T06:11:20.183Z,-1.42
2019-02-25T06:13:47.242Z,-1.29
2019-02-25T06:16:14.285Z,-1.05
2019-02-25T06:18:41.327Z,-0.79
2019-02-25T06:21:08.395Z,-0.56
2019-02-25T06:23:35.435Z,0.02
2019-02-25T06:26:02.508Z,0.27
2019-02-25T06:28:29.545Z,0.43
2019-02-25T06:30:56.633Z,0.99
2019-02-25T06:33:23.680Z,1.17
2019-02-25T06:35:50.711Z,0.81
2019-02-25T06:38:17.749Z,0.38
2019-02-25T06:40:44.793Z,-0.01
2019-02-25T06:43:11.868Z,-0.32
2019-02-25T06:45:38.917Z,-0.60
2019-02-25T06:48:05.990Z,-0.87
2019-02-25T06:50:33.038Z,-0.93
2019-02-25T06:53:00.116Z,-1.01
2019-02-25T06:55:27.163Z,-1.08
2019-02-25T06:57:54.196Z,-1.16
2019-02-25T07:00:21.240Z,-1.26
2019-02-25T07:02:48.299Z,-1.36
2019-02-25T07:05:26.616Z,-1.50
2019-02-25T07:07:56.756Z,-1.50
2019-02-25T07:10:37.056Z,-1.57
2019-02-25T07:13:29.508Z,-1.59
2019-02-25T07:16:14.756Z,-1.55
2019-02-25T07:18:53.058Z,-1.52
2019-02-25T07:21:39.726Z,-1.46
2019-02-25T07:24:13.901Z,-1.44
2019-02-25T07:27:12.887Z,-1.37
2019-02-25T07:29:59.552Z,-1.27
2019-02-25T07:32:55.562Z,-1.03
2019-02-25T07:35:45.046Z,-0.90
2019-02-25T07:38:39.694Z,-0.71
2019-02-25T07:41:29.441Z,-0.60
2019-02-25T07:44:16.315Z,-0.54
2019-02-25T07:47:08.891Z,-0.54
2019-02-25T07:49:55.541Z,-0.50
2019-02-25T07:52:42.227Z,-0.47
2019-02-25T07:55:23.766Z,-0.43
2019-02-25T07:58:14.666Z,-0.38
2019-02-25T08:00:55.539Z,-0.32
2019-02-25T08:03:48.031Z,-0.24
2019-02-25T08:06:28.517Z,-0.10
2019-02-25T08:09:14.011Z,-0.10
2019-02-25T08:12:02.967Z,0.14
2019-02-25T08:14:51.088Z,0.14
2019-02-25T08:17:41.395Z,0.26
2019-02-25T08:20:33.776Z,0.41
2019-02-25T08:23:20.455Z,0.52
2019-02-25T08:26:09.633Z,0.65
2019-02-25T08:28:59.049Z,0.79
2019-02-25T08:31:42.615Z,0.90
2019-02-25T08:34:32.211Z,1.01
2019-02-25T08:37:43.502Z,1.14
2019-02-25T08:40:51.869Z,1.27
2019-02-25T08:43:31.895Z,1.42
2019-02-25T08:46:18.557Z,1.63
2019-02-25T08:48:58.460Z,1.81
2019-02-25T08:51:25.501Z,1.96
2019-02-25T08:53:52.558Z,2.09
2019-02-25T08:56:19.709Z,2.25
2019-02-25T08:58:46.780Z,2.36
2019-02-25T09:01:15.384Z,2.50
2019-02-25T09:03:42.709Z,2.62
2019-02-25T09:06:09.766Z,2.73
2019-02-25T09:08:36.817Z,2.84
2019-02-25T09:11:03.878Z,2.94
2019-02-25T09:13:30.937Z,3.09
2019-02-25T09:15:57.985Z,3.21
2019-02-25T09:18:25.044Z,3.34
2019-02-25T09:20:52.104Z,3.47
2019-02-25T09:23:19.186Z,3.60
2019-02-25T09:25:46.260Z,3.74
2019-02-25T09:28:13.317Z,3.84
2019-02-25T09:30:40.376Z,3.97
2019-02-25T09:33:07.431Z,4.10
2019-02-25T09:35:34.546Z,4.23
2019-02-25T09:38:01.606Z,4.38
2019-02-25T09:40:28.642Z,4.50
2019-02-25T09:42:55.720Z,4.62
2019-02-25T09:45:22.763Z,4.72
2019-02-25T09:47:49.798Z,4.76
2019-02-25T09:50:16.859Z,4.83
2019-02-25T09:52:43.910Z,4.90
2019-02-25T09:55:12.378Z,5.00
2019-02-25T09:57:39.448Z,5.09
2019-02-25T10:00:09.452Z,5.20
2019-02-25T10:02:36.511Z,5.34
2019-02-25T10:05:04.258Z,5.51
2019-02-25T10:07:31.326Z,5.69
2019-02-25T10:09:58.381Z,5.89
2019-02-25T10:12:25.420Z,6.15
2019-02-25T10:14:52.487Z,6.39
2019-02-25T10:17:23.638Z,6.64
2019-02-25T10:19:48.491Z,6.90
2019-02-25T10:22:15.568Z,7.12
2019-02-25T10:24:42.635Z,7.34
2019-02-25T10:27:09.727Z,7.57
2019-02-25T10:29:36.786Z,7.80
2019-02-25T10:32:04.835Z,7.98
2019-02-25T10:34:32.805Z,8.19
2019-02-25T10:36:59.861Z,8.40
2019-02-25T10:39:26.928Z,8.60
2019-02-25T10:41:55.506Z,8.74
2019-02-25T10:44:22.925Z,8.90
2019-02-25T10:46:49.971Z,9.11
2019-02-25T10:49:17.019Z,9.26
2019-02-25T10:51:45.622Z,9.45
2019-02-25T10:54:12.714Z,9.64
2019-02-25T10:56:43.560Z,9.77
2019-02-25T10:59:10.623Z,9.92
2019-02-25T11:01:39.259Z,10.01
2019-02-25T11:04:06.633Z,10.12
2019-02-25T11:06:35.525Z,10.30
2019-02-25T11:09:32.041Z,10.47
2019-02-25T11:12:00.110Z,10.54
2019-02-25T11:14:35.857Z,10.59
2019-02-25T11:17:09.920Z,10.62
2019-02-25T11:19:36.950Z,10.53
2019-02-25T11:22:05.590Z,10.53
2019-02-25T11:24:33.024Z,10.70
2019-02-25T11:27:01.124Z,10.96
2019-02-25T11:29:35.072Z,11.25
2019-02-25T11:32:02.120Z,11.50
2019-02-25T11:34:31.085Z,11.76
2019-02-25T11:37:04.272Z,12.29
2019-02-25T11:39:32.605Z,12.29
2019-02-25T11:42:08.023Z,12.37
2019-02-25T11:45:03.675Z,12.78
2019-02-25T11:47:40.012Z,12.78
2019-02-25T11:50:09.257Z,12.94
2019-02-25T11:52:50.610Z,12.91
2019-02-25T11:55:37.131Z,12.91
2019-02-25T11:58:04.180Z,12.98
2019-02-25T12:00:31.246Z,13.09
2019-02-25T12:03:17.870Z,13.14
2019-02-25T12:05:44.925Z,13.23
2019-02-25T12:08:11.995Z,13.34
2019-02-25T12:10:39.032Z,13.53
2019-02-25T12:13:06.110Z,13.68
2019-02-25T12:15:33.257Z,13.81
2019-02-25T12:18:00.319Z,13.79
2019-02-25T12:20:27.368Z,13.78
2019-02-25T12:22:54.385Z,13.84
2019-02-25T12:25:21.440Z,13.99
2019-02-25T12:27:48.479Z,14.19
2019-02-25T12:30:16.744Z,14.33
2019-02-25T12:32:43.823Z,14.31
2019-02-25T12:35:10.862Z,14.34
2019-02-25T12:37:37.902Z,14.42
2019-02-25T12:40:05.096Z,14.38
2019-02-25T12:42:32.498Z,14.36
2019-02-25T12:44:59.556Z,14.34
2019-02-25T12:47:26.606Z,14.34
2019-02-25T12:49:53.664Z,14.53
2019-02-25T12:52:20.690Z,14.71
2019-02-25T12:54:47.725Z,14.79
2019-02-25T12:57:14.776Z,14.81
2019-02-25T12:59:41.800Z,14.77
2019-02-25T13:02:08.843Z,14.72
2019-02-25T13:04:35.870Z,14.57
2019-02-25T13:07:02.924Z,14.43
2019-02-25T13:09:29.964Z,14.36
2019-02-25T13:11:57.012Z,14.29
2019-02-25T13:14:24.045Z,14.19
2019-02-25T13:16:51.372Z,14.28
2019-02-25T13:19:18.417Z,14.43
2019-02-25T13:21:45.744Z,14.55
2019-02-25T13:24:12.795Z,14.66
2019-02-25T13:26:39.823Z,14.66
2019-02-25T13:29:06.879Z,14.63
2019-02-25T13:31:33.938Z,14.54
2019-02-25T13:34:00.987Z,14.49
2019-02-25T13:36:28.029Z,14.46
2019-02-25T13:38:55.093Z,14.42
2019-02-25T13:41:22.145Z,14.46
2019-02-25T13:43:49.179Z,14.54
2019-02-25T13:46:16.326Z,14.54
2019-02-25T13:48:43.360Z,14.54
2019-02-25T13:51:10.418Z,14.64
2019-02-25T13:53:37.455Z,14.73
2019-02-25T13:56:04.585Z,14.78
2019-02-25T13:58:31.639Z,14.91
2019-02-25T14:00:58.788Z,15.09
2019-02-25T14:03:25.915Z,15.14
2019-02-25T14:05:52.970Z,15.16
2019-02-25T14:08:20.061Z,15.21
2019-02-25T14:10:47.321Z,15.34
2019-02-25T14:13:14.390Z,15.48
2019-02-25T14:15:41.477Z,15.58
2019-02-25T14:18:08.533Z,15.61
2019-02-25T14:20:35.601Z,15.79
2019-02-25T14:23:02.656Z,16.02
2019-02-25T14:25:29.747Z,16.26
2019-02-25T14:27:57.005Z,16.52
2019-02-25T14:30:24.143Z,16.65
2019-02-25T14:32:53.496Z,16.77
2019-02-25T14:35:21.398Z,16.86
2019-02-25T14:37:48.464Z,16.98
2019-02-25T14:40:17.133Z,17.09
2019-02-25T14:42:53.728Z,17.29
2019-02-25T14:45:28.682Z,17.36
2019-02-25T14:48:08.020Z,17.39
2019-02-25T14:53:44.803Z,17.22
2019-02-25T14:56:18.210Z,17.03
2019-02-25T14:58:46.056Z,16.89
2019-02-25T15:01:21.051Z,16.75
2019-02-25T15:03:56.487Z,16.65
2019-02-25T15:06:32.510Z,16.64
2019-02-25T15:09:09.819Z,16.48
2019-02-25T15:11:42.371Z,16.66
2019-02-25T15:14:10.671Z,17.20
2019-02-25T15:16:44.604Z,17.78
2019-02-25T15:19:13.365Z,18.16
2019-02-25T15:21:47.607Z,18.23
2019-02-25T15:24:21.874Z,18.21
2019-02-25T15:26:48.961Z,18.12
2019-02-25T15:29:16.032Z,18.12
2019-02-25T15:31:44.439Z,18.07
2019-02-25T15:34:19.303Z,18.12
2019-02-25T15:36:53.391Z,18.20
2019-02-25T15:39:20.501Z,17.97
2019-02-25T15:41:48.697Z,17.69
2019-02-25T15:44:16.510Z,17.39
2019-02-25T15:46:43.580Z,16.93
2019-02-25T15:49:12.740Z,16.34
2019-02-25T15:51:41.564Z,15.81
2019-02-25T15:54:10.126Z,15.32
2019-02-25T15:56:37.460Z,14.92
2019-02-25T15:59:04.518Z,14.61
2019-02-25T16:01:31.753Z,14.27
2019-02-25T16:04:02.243Z,13.94
2019-02-25T16:06:29.207Z,13.60
2019-02-25T16:09:07.730Z,13.26
2019-02-25T16:11:34.931Z,12.90
2019-02-25T16:14:02.932Z,12.51
2019-02-25T16:16:41.089Z,12.14
2019-02-25T16:19:08.181Z,11.74
2019-02-25T16:21:35.253Z,11.39
2019-02-25T16:24:04.816Z,11.09
2019-02-25T16:26:42.767Z,10.84
2019-02-25T16:29:16.184Z,10.55
2019-02-25T16:31:43.271Z,10.27
2019-02-25T16:34:29.844Z,9.81
2019-02-25T16:36:58.244Z,9.81
2019-02-25T16:39:32.585Z,9.60
2019-02-25T16:41:59.686Z,9.37
2019-02-25T16:44:26.753Z,9.13
2019-02-25T16:46:54.167Z,8.91
2019-02-25T16:49:21.292Z,8.71
2019-02-25T16:51:48.374Z,8.50
2019-02-25T16:54:18.968Z,8.32
2019-02-25T16:56:50.521Z,8.17
2019-02-25T16:59:18.571Z,8.03
2019-02-25T17:01:55.826Z,7.91
2019-02-25T17:04:31.730Z,7.79
2019-02-25T17:07:08.858Z,7.68
2019-02-25T17:09:37.111Z,7.52
2019-02-25T17:12:11.629Z,7.38
2019-02-25T17:14:40.492Z,7.20
2019-02-25T17:17:18.306Z,7.07
2019-02-25T17:19:45.412Z,6.93
2019-02-25T17:22:12.503Z,6.78
2019-02-25T17:24:39.574Z,6.67
2019-02-25T17:27:08.937Z,6.57
2019-02-25T17:29:36.232Z,6.46
2019-02-25T17:32:03.751Z,6.38
2019-02-25T17:34:32.179Z,6.28
2019-02-25T17:36:59.783Z,6.18
2019-02-25T17:39:26.865Z,6.07
2019-02-25T17:41:54.051Z,5.97
2019-02-25T17:44:23.370Z,5.87
2019-02-25T17:46:50.253Z,5.78
2019-02-25T17:49:19.085Z,5.68
2019-02-25T17:51:46.379Z,5.61
2019-02-25T17:54:14.655Z,5.54
2019-02-25T17:56:43.170Z,5.51
2019-02-25T17:59:13.655Z,5.46
2019-02-25T18:01:41.763Z,5.38
2019-02-25T18:04:10.854Z,5.29
2019-02-25T18:06:41.496Z,5.17
2019-02-25T18:09:09.254Z,5.06
2019-02-25T18:11:38.942Z,4.97
2019-02-25T18:14:06.055Z,4.91
2019-02-25T18:16:36.795Z,4.86
2019-02-25T18:19:02.257Z,4.83
2019-02-25T18:21:29.372Z,4.79
2019-02-25T18:23:56.830Z,4.75
2019-02-25T18:26:24.236Z,4.70
2019-02-25T18:28:52.626Z,4.65
2019-02-25T18:31:20.590Z,4.62
2019-02-25T18:33:48.533Z,4.57
2019-02-25T18:36:18.077Z,4.52
2019-02-25T18:38:46.445Z,4.45
2019-02-25T18:41:14.380Z,4.38
2019-02-25T18:43:42.989Z,4.32
2019-02-25T18:46:11.486Z,4.24
2019-02-25T18:48:40.722Z,4.17
2019-02-25T18:51:08.177Z,4.12
2019-02-25T18:53:35.633Z,4.05
2019-02-25T18:56:02.806Z,4.00
2019-02-25T18:58:31.100Z,3.97
2019-02-25T19:00:59.144Z,3.92
2019-02-25T19:03:26.952Z,3.88
2019-02-25T19:05:55.387Z,3.84
2019-02-25T19:08:24.627Z,3.79
2019-02-25T19:10:53.185Z,3.74
2019-02-25T19:13:23.344Z,3.71
2019-02-25T19:15:53.105Z,3.67
2019-02-25T19:18:21.213Z,3.64
2019-02-25T19:20:48.462Z,3.60
2019-02-25T19:23:16.584Z,3.54
2019-02-25T19:25:45.515Z,3.53
2019-02-25T19:28:16.567Z,3.53
2019-02-25T19:30:42.042Z,3.55
2019-02-25T19:33:11.400Z,3.58
2019-02-25T19:35:40.860Z,3.62
2019-02-25T19:38:10.229Z,3.63
2019-02-25T19:40:40.379Z,3.59
2019-02-25T19:43:07.140Z,3.58
2019-02-25T19:45:36.385Z,3.55
2019-02-25T19:48:05.358Z,3.48
2019-02-25T19:50:38.528Z,3.42
2019-02-25T19:53:07.654Z,3.39
2019-02-25T19:55:36.175Z,3.36
2019-02-25T19:58:04.514Z,3.32
2019-02-25T20:00:33.860Z,3.27
2019-02-25T20:03:05.492Z,3.23
2019-02-25T20:05:33.171Z,3.23
2019-02-25T20:08:04.389Z,3.19
2019-02-25T20:10:32.208Z,3.08
2019-02-25T20:13:05.708Z,2.98
2019-02-25T20:15:32.617Z,2.91
2019-02-25T20:17:59.915Z,2.84
2019-02-25T20:20:34.617Z,2.81
2019-02-25T20:23:03.867Z,2.77
2019-02-25T20:25:31.252Z,2.76
2019-02-25T20:28:00.329Z,2.72
2019-02-25T20:30:28.834Z,2.69
2019-02-25T20:32:56.788Z,2.64
2019-02-25T20:35:26.786Z,2.61
2019-02-25T20:37:55.751Z,2.57
2019-02-25T20:40:26.021Z,2.54
2019-02-25T20:42:56.452Z,2.53
2019-02-25T20:45:27.738Z,2.55
2019-02-25T20:47:57.221Z,2.58
2019-02-25T20:50:24.771Z,2.58
2019-02-25T20:52:52.212Z,2.57
2019-02-25T20:55:19.390Z,2.56
2019-02-25T20:57:46.837Z,2.52
2019-02-25T21:00:17.731Z,2.50
2019-02-25T21:02:46.678Z,2.48
2019-02-25T21:05:16.912Z,2.45
2019-02-25T21:07:44.983Z,2.43
2019-02-25T21:10:12.425Z,2.42
2019-02-25T21:12:39.505Z,2.39
2019-02-25T21:15:08.458Z,2.36
2019-02-25T21:17:37.765Z,2.38
2019-02-25T21:20:07.124Z,2.36
2019-02-25T21:22:36.252Z,2.36
2019-02-25T21:25:04.863Z,2.35
2019-02-25T21:27:34.644Z,2.33
2019-02-25T21:30:03.877Z,2.32
2019-02-25T21:32:30.742Z,2.29
2019-02-25T21:34:59.555Z,2.29
2019-02-25T21:37:27.721Z,2.29
2019-02-25T21:39:56.636Z,2.29
2019-02-25T21:42:26.741Z,2.29
2019-02-25T21:44:54.689Z,2.26
2019-02-25T21:47:24.304Z,2.26
2019-02-25T21:49:52.462Z,2.24
2019-02-25T21:52:20.774Z,2.22
2019-02-25T21:54:47.841Z,2.20
2019-02-25T21:57:14.893Z,2.18
2019-02-25T21:59:41.997Z,2.18
2019-02-25T22:02:09.066Z,2.16
2019-02-25T22:04:38.493Z,2.14
2019-02-25T22:07:05.065Z,2.11
2019-02-25T22:09:36.984Z,2.11
2019-02-25T22:12:01.111Z,2.08
2019-02-25T22:14:28.157Z,2.05
2019-02-25T22:16:56.631Z,2.04
2019-02-25T22:19:24.167Z,2.02
2019-02-25T22:21:53.573Z,2.02
2019-02-25T22:24:24.776Z,1.97
2019-02-25T22:26:51.206Z,1.95
2019-02-25T22:29:18.125Z,1.94
2019-02-25T22:31:45.169Z,1.92
2019-02-25T22:34:13.124Z,1.91
2019-02-25T22:36:43.778Z,1.90
2019-02-25T22:39:10.799Z,1.90
2019-02-25T22:41:37.847Z,1.88
2019-02-25T22:44:06.371Z,1.88
2019-02-25T22:46:36.833Z,1.88
2019-02-25T22:49:03.486Z,1.87
2019-02-25T22:51:33.206Z,1.87
2019-02-25T22:54:00.769Z,1.86
2019-02-25T22:56:28.218Z,1.86
2019-02-25T22:58:56.603Z,1.86
2019-02-25T23:01:24.316Z,1.86
2019-02-25T23:03:54.528Z,1.84
2019-02-25T23:06:21.320Z,1.83
2019-02-25T23:08:51.010Z,1.81
2019-02-25T23:11:19.839Z,1.79
2019-02-25T23:13:47.868Z,1.77
2019-02-25T23:16:18.673Z,1.76
2019-02-25T23:18:47.768Z,1.73
2019-02-25T23:21:23.434Z,1.70
2019-02-25T23:23:44.299Z,1.66
2019-02-25T23:26:12.604Z,1.63
2019-02-25T23:28:40.274Z,1.61
2019-02-25T23:31:07.313Z,1.60
2019-02-25T23:33:38.148Z,1.57
2019-02-25T23:36:03.370Z,1.56
2019-02-25T23:38:30.428Z,1.56
2019-02-25T23:41:01.311Z,1.55
2019-02-25T23:43:26.478Z,1.51
2019-02-25T23:45:53.557Z,1.50
2019-02-25T23:48:20.578Z,1.49
2019-02-25T23:50:48.507Z,1.48
2019-02-25T23:53:16.560Z,1.48
2019-02-25T23:55:47.129Z,1.46
2019-02-25T23:58:14.785Z,1.46
